Time;durP1;ratioP1;P1;durP2;ratioP2;P2;SDS_P1;SDS_P2;PMS_P1;PMS_P2;Temp;Humidity;BMP_temperature;BMP_pressure;BME280_temperature;BME280_humidity;BME280_pressure;Samples;Min_cycle;Max_cycle;Signal;HPM_P1;HPM_P2
2022/11/11 00:02:00;;;;;;;0.90;0.90;;;;;;;8.73;100.00;100537.00;5053437;28;20197;-66
2022/11/11 00:04:28;;;;;;;1.27;1.23;;;;;;;8.69;100.00;100532.78;5052597;28;20196;-65
2022/11/11 00:06:55;;;;;;;0.50;0.50;;;;;;;8.69;100.00;100541.25;5053979;28;20303;-65
2022/11/11 00:09:22;;;;;;;2.30;1.00;;;;;;;8.64;100.00;100540.44;5053233;28;20216;-65
2022/11/11 00:11:48;;;;;;;0.70;0.70;;;;;;;8.60;100.00;100535.34;5052594;28;20270;-66
2022/11/11 00:14:15;;;;;;;0.93;0.93;;;;;;;8.60;100.00;100537.91;5051447;28;20208;-66
2022/11/11 00:25:08;;;;;;;0.57;0.57;;;;;;;8.57;100.00;100525.13;5052757;28;20252;-66
2022/11/11 00:27:35;;;;;;;0.83;0.83;;;;;;;8.53;100.00;100534.50;5052469;28;20197;-66
2022/11/11 00:30:02;;;;;;;1.33;1.33;;;;;;;8.50;99.89;100533.69;5053416;28;20626;-66
2022/11/11 00:32:32;;;;;;;0.90;0.90;;;;;;;8.48;100.00;100538.81;5052881;28;20209;-65
2022/11/11 00:37:47;;;;;;;1.10;1.10;;;;;;;8.43;100.00;100538.81;5052846;28;20254;-66
2022/11/11 00:40:14;;;;;;;1.03;1.03;;;;;;;8.42;100.00;100531.16;5052871;28;20683;-66
2022/11/11 00:42:41;;;;;;;0.57;0.57;;;;;;;8.42;100.00;100529.47;5052616;28;20197;-66
2022/11/11 00:45:09;;;;;;;0.70;0.70;;;;;;;8.40;100.00;100532.88;5052863;28;20585;-66
2022/11/11 00:53:10;;;;;;;0.70;0.70;;;;;;;8.31;100.00;100517.56;5052170;28;20227;-65
2022/11/11 00:55:37;;;;;;;0.60;0.60;;;;;;;8.28;100.00;100518.44;5052415;28;20236;-65
2022/11/11 00:58:04;;;;;;;0.83;0.83;;;;;;;8.26;100.00;100520.13;5052089;28;20679;-66
2022/11/11 01:00:31;;;;;;;0.70;0.70;;;;;;;8.25;100.00;100518.41;5052302;28;20208;-65
2022/11/11 01:02:58;;;;;;;0.60;0.60;;;;;;;8.20;100.00;100511.63;5051900;28;20205;-65
2022/11/11 01:05:27;;;;;;;0.57;0.57;;;;;;;8.19;100.00;100503.09;5052536;28;20738;-65
2022/11/11 01:07:56;;;;;;;0.70;0.70;;;;;;;8.21;100.00;100506.50;5051097;28;20246;-66
2022/11/11 01:10:38;;;;;;;0.60;0.60;;;;;;;8.18;100.00;100506.50;5050036;28;20212;-66
2022/11/11 01:13:13;;;;;;;0.70;0.70;;;;;;;8.17;100.00;100504.81;5051154;28;20243;-65
2022/11/11 01:15:40;;;;;;;0.50;0.50;;;;;;;8.15;100.00;100509.06;5052028;28;20216;-66
2022/11/11 01:18:08;;;;;;;0.60;0.60;;;;;;;8.07;100.00;100492.06;5051854;28;20196;-66
2022/11/11 01:20:36;;;;;;;0.73;0.73;;;;;;;8.15;100.00;100498.84;5051913;28;20200;-65
2022/11/11 01:23:04;;;;;;;0.80;0.80;;;;;;;8.04;100.00;100503.16;5051847;28;20283;-66
2022/11/11 01:25:33;;;;;;;1.20;1.20;;;;;;;7.87;100.00;100479.34;5052095;28;20200;-66
2022/11/11 01:28:00;;;;;;;0.63;0.63;;;;;;;7.97;100.00;100498.91;5051489;28;20193;-65
2022/11/11 01:30:30;;;;;;;1.77;1.77;;;;;;;7.97;100.00;100501.47;5051727;28;20216;-66
2022/11/11 01:32:56;;;;;;;0.57;0.57;;;;;;;7.92;100.00;100495.50;5051268;28;20197;-66
2022/11/11 01:35:23;;;;;;;0.60;0.60;;;;;;;7.84;100.00;100489.56;5051865;28;20201;-66
2022/11/11 01:37:51;;;;;;;1.07;1.07;;;;;;;7.78;100.00;100487.03;5052028;28;20200;-65
2022/11/11 01:40:18;;;;;;;0.60;0.60;;;;;;;7.65;100.00;100472.59;5051513;28;20205;-66
2022/11/11 01:42:53;;;;;;;0.50;0.50;;;;;;;7.74;100.00;100483.63;5051572;28;20204;-66
2022/11/11 01:45:46;;;;;;;0.70;0.70;;;;;;;7.74;100.00;100483.63;5051168;28;20205;-65
2022/11/11 01:51:04;;;;;;;0.60;0.60;;;;;;;7.70;100.00;100488.72;5051660;28;20199;-65
2022/11/11 01:53:32;;;;;;;0.80;0.80;;;;;;;7.69;100.00;100494.69;5050358;28;20225;-65
2022/11/11 01:56:01;;;;;;;0.60;0.60;;;;;;;7.59;100.00;100482.81;5050583;28;20705;-65
2022/11/11 01:58:28;;;;;;;1.83;1.67;;;;;;;7.67;100.00;100491.28;5051160;28;20640;-65
2022/11/11 02:00:55;;;;;;;0.70;0.70;;;;;;;7.64;100.00;100488.75;5051201;28;20223;-65
2022/11/11 02:03:25;;;;;;;0.60;0.60;;;;;;;7.65;100.00;100496.41;5050636;28;20220;-65
2022/11/11 02:05:54;;;;;;;0.63;0.63;;;;;;;7.64;100.00;100496.41;5050474;28;20204;-65
2022/11/11 02:08:32;;;;;;;0.60;0.60;;;;;;;7.49;100.00;100488.75;5051096;28;20633;-65
2022/11/11 02:11:04;;;;;;;0.50;0.50;;;;;;;7.50;100.00;100498.09;5050622;28;20692;-66
2022/11/11 02:16:16;;;;;;;1.03;1.03;;;;;;;6.96;100.00;100504.00;5050713;28;20325;-66
2022/11/11 02:18:44;;;;;;;0.80;0.80;;;;;;;6.95;100.00;100507.41;5050995;28;20200;-65
2022/11/11 02:21:14;;;;;;;0.80;0.80;;;;;;;6.97;100.00;100506.56;5050853;28;20193;-65
2022/11/11 02:23:46;;;;;;;0.60;0.60;;;;;;;7.05;100.00;100520.16;5050904;28;20196;-65
2022/11/11 02:26:17;;;;;;;0.90;0.90;;;;;;;7.02;100.00;100515.06;5051022;28;20208;-65
2022/11/11 02:28:46;;;;;;;1.40;1.40;;;;;;;6.97;100.00;100504.03;5050631;28;20224;-65
2022/11/11 02:31:13;;;;;;;1.30;1.30;;;;;;;6.99;100.00;100504.84;5050762;28;20209;-65
2022/11/11 02:33:40;;;;;;;1.10;1.10;;;;;;;7.04;100.00;100503.19;5050661;28;20197;-65
2022/11/11 02:36:14;;;;;;;0.87;0.87;;;;;;;7.08;100.00;100504.88;5049777;28;20201;-65
2022/11/11 02:38:42;;;;;;;0.63;0.63;;;;;;;7.09;100.00;100521.88;5050865;28;20561;-65
2022/11/11 02:43:54;;;;;;;0.60;0.60;;;;;;;7.00;100.00;100491.28;5050738;28;20203;-65
2022/11/11 02:46:21;;;;;;;0.80;0.80;;;;;;;6.96;100.00;100509.94;5050669;28;20646;-65
2022/11/11 02:48:48;;;;;;;0.90;0.90;;;;;;;6.92;99.91;100505.69;5048154;28;20216;-65
2022/11/11 02:51:14;;;;;;;1.37;1.37;;;;;;;6.89;100.00;100510.78;5048731;28;20207;-65
2022/11/11 02:53:41;;;;;;;0.60;0.60;;;;;;;6.90;100.00;100504.84;5050391;28;20208;-65
2022/11/11 02:56:08;;;;;;;0.73;0.73;;;;;;;6.90;100.00;100511.63;5049482;28;20259;-65
2022/11/11 02:58:34;;;;;;;0.60;0.60;;;;;;;6.84;100.00;100504.84;5050266;28;20258;-65
2022/11/11 03:01:03;;;;;;;0.70;0.70;;;;;;;6.84;100.00;100487.84;5050176;28;20204;-65
2022/11/11 03:03:29;;;;;;;0.63;0.63;;;;;;;6.84;100.00;100489.53;5050451;28;20585;-65
2022/11/11 03:05:56;;;;;;;1.30;1.30;;;;;;;6.98;100.00;100508.25;5049351;28;20569;-65
2022/11/11 03:08:23;;;;;;;0.73;0.73;;;;;;;6.98;100.00;100508.25;5049597;28;20270;-65
2022/11/11 03:10:50;;;;;;;0.60;0.60;;;;;;;7.00;100.00;100503.16;5050823;28;20201;-66
2022/11/11 03:13:16;;;;;;;1.23;1.23;;;;;;;7.01;100.00;100507.44;5050282;28;20204;-65
2022/11/11 03:15:43;;;;;;;0.60;0.60;;;;;;;6.99;100.00;100494.66;5052930;28;20274;-65
2022/11/11 03:18:10;;;;;;;1.70;1.03;;;;;;;7.06;100.00;100506.59;5054231;28;20271;-65
2022/11/11 03:23:21;;;;;;;0.77;0.77;;;;;;;7.02;100.00;100499.75;5053810;28;20207;-65
2022/11/11 03:25:48;;;;;;;0.60;0.60;;;;;;;6.92;100.00;100485.28;5054295;28;20207;-65
2022/11/11 03:28:17;;;;;;;0.70;0.70;;;;;;;7.02;100.00;100511.66;5054042;28;20627;-65
2022/11/11 03:30:46;;;;;;;0.50;0.50;;;;;;;7.05;100.00;100509.13;5054239;28;20204;-65
2022/11/11 03:33:16;;;;;;;0.50;0.50;;;;;;;7.01;100.00;100497.22;5054175;28;20197;-65
2022/11/11 03:35:43;;;;;;;0.50;0.50;;;;;;;7.06;100.00;100504.03;5054381;28;20696;-65
2022/11/11 03:38:22;;;;;;;0.60;0.60;;;;;;;7.08;100.00;100499.78;5054254;28;20235;-65
2022/11/11 03:40:50;;;;;;;0.80;0.80;;;;;;;7.10;100.00;100495.53;5053744;28;20197;-65
2022/11/11 03:43:19;;;;;;;0.70;0.70;;;;;;;6.93;100.00;100479.34;5053852;28;20669;-65
2022/11/11 03:45:46;;;;;;;0.70;0.70;;;;;;;7.07;100.00;100503.19;5053940;28;20207;-65
2022/11/11 03:48:15;;;;;;;0.97;0.97;;;;;;;7.11;100.00;100498.94;5053196;28;20209;-65
2022/11/11 03:50:42;;;;;;;0.60;0.60;;;;;;;7.10;100.00;100495.53;5053643;28;20213;-65
2022/11/11 03:53:09;;;;;;;0.70;0.70;;;;;;;7.06;100.00;100496.38;5053885;28;20199;-65
2022/11/11 03:55:35;;;;;;;0.67;0.67;;;;;;;7.04;100.00;100493.00;5053652;28;20196;-65
2022/11/11 03:58:02;;;;;;;1.93;1.43;;;;;;;7.05;100.00;100498.91;5053387;28;20668;-65
2022/11/11 04:00:29;;;;;;;0.80;0.80;;;;;;;7.05;100.00;100504.88;5053414;28;20204;-65
2022/11/11 04:11:31;;;;;;;0.63;0.63;;;;;;;6.85;100.00;100511.63;5044085;28;20231;-65
2022/11/11 04:16:45;;;;;;;0.67;0.67;;;;;;;6.82;100.00;100517.56;5052773;28;20239;-65
2022/11/11 04:21:58;;;;;;;0.60;0.60;;;;;;;6.90;100.00;100525.25;5053094;28;20262;-65
2022/11/11 04:27:11;;;;;;;0.90;0.90;;;;;;;6.82;100.00;100524.34;5052450;28;20210;-65
2022/11/11 04:29:36;;;;;;;0.60;0.60;;;;;;;6.85;100.00;100526.91;5052954;28;20275;-65
2022/11/11 04:34:51;;;;;;;0.60;0.60;;;;;;;6.83;100.00;100528.63;5052044;28;20641;-65
2022/11/11 04:37:20;;;;;;;0.70;0.70;;;;;;;6.82;100.00;100526.91;5052675;28;20197;-65
2022/11/11 04:42:33;;;;;;;0.50;0.50;;;;;;;6.70;100.00;100537.06;5053041;28;20195;-65
2022/11/11 04:47:56;;;;;;;0.87;0.87;;;;;;;6.59;100.00;100538.72;5049764;28;20207;-65
2022/11/11 04:50:23;;;;;;;0.60;0.60;;;;;;;6.64;100.00;100531.94;5052964;28;20216;-65
2022/11/11 04:52:51;;;;;;;1.00;1.00;;;;;;;6.66;100.00;100535.34;5052739;28;20700;-65
2022/11/11 04:58:02;;;;;;;0.53;0.53;;;;;;;6.65;100.00;100531.97;5049604;28;20206;-65
2022/11/11 05:00:29;;;;;;;0.70;0.70;;;;;;;6.68;100.00;100533.66;5049770;28;20200;-65
2022/11/11 05:11:12;;;;;;;0.60;0.60;;;;;;;6.68;100.00;100533.66;5051327;28;20691;-65
2022/11/11 05:22:00;;;;;;;0.53;0.53;;;;;;;6.67;100.00;100531.94;5052546;28;20254;-65
2022/11/11 05:27:13;;;;;;;0.50;0.50;;;;;;;6.72;100.00;100541.31;5048640;28;20265;-65
2022/11/11 05:29:39;;;;;;;0.70;0.70;;;;;;;6.74;100.00;100546.44;5051887;28;20225;-65
2022/11/11 05:32:08;;;;;;;0.60;0.60;;;;;;;6.66;100.00;100532.78;5051914;28;20255;-65
2022/11/11 05:34:35;;;;;;;0.80;0.80;;;;;;;6.76;100.00;100553.22;5051882;28;20204;-64
2022/11/11 05:37:01;;;;;;;0.80;0.80;;;;;;;6.79;100.00;100549.81;5051599;28;20568;-65
2022/11/11 05:39:30;;;;;;;0.60;0.60;;;;;;;6.76;100.00;100532.84;5051240;28;20254;-65
2022/11/11 05:41:56;;;;;;;0.50;0.50;;;;;;;6.82;100.00;100547.28;5051303;28;20200;-65
2022/11/11 05:44:23;;;;;;;1.60;1.60;;;;;;;6.72;100.00;100535.38;5050243;28;20676;-65
2022/11/11 05:46:50;;;;;;;0.73;0.73;;;;;;;6.88;100.00;100552.44;5051117;28;20577;-65
2022/11/11 05:49:17;;;;;;;0.60;0.60;;;;;;;6.90;100.00;100550.72;5050032;28;20216;-65
2022/11/11 05:51:44;;;;;;;0.70;0.70;;;;;;;6.87;100.00;100530.31;5051375;28;20201;-65
2022/11/11 05:54:11;;;;;;;0.60;0.60;;;;;;;6.94;100.00;100556.69;5051267;28;20197;-64
2022/11/11 05:56:40;;;;;;;0.60;0.60;;;;;;;6.97;100.00;100557.56;5048223;28;20205;-64
2022/11/11 05:59:07;;;;;;;0.60;0.60;;;;;;;7.03;100.00;100549.06;5050426;28;20201;-65
2022/11/11 06:01:35;;;;;;;0.67;0.67;;;;;;;7.05;100.00;100557.56;5046106;28;20211;-65
2022/11/11 06:04:01;;;;;;;1.00;1.00;;;;;;;6.99;100.00;100540.56;5047118;28;20213;-67
2022/11/11 06:06:28;;;;;;;0.70;0.70;;;;;;;7.09;100.00;100555.03;5045884;28;20228;-66
2022/11/11 06:08:55;;;;;;;1.17;1.07;;;;;;;7.15;100.00;100557.59;5044375;28;20212;-67
2022/11/11 06:11:22;;;;;;;0.63;0.63;;;;;;;7.21;100.00;100562.69;5044264;28;20553;-66
2022/11/11 06:13:50;;;;;;;0.70;0.70;;;;;;;7.25;100.00;100566.97;5048431;28;20197;-66
2022/11/11 06:16:17;;;;;;;0.60;0.60;;;;;;;7.31;100.00;100573.75;5049985;28;20235;-66
2022/11/11 06:18:44;;;;;;;0.80;0.80;;;;;;;7.37;100.00;100564.41;5049059;28;20255;-66
2022/11/11 06:21:11;;;;;;;0.70;0.70;;;;;;;7.42;100.00;100571.25;5050240;28;20199;-65
2022/11/11 06:23:38;;;;;;;0.50;0.50;;;;;;;7.39;100.00;100560.19;5050202;28;20212;-65
2022/11/11 06:26:13;;;;;;;0.70;0.70;;;;;;;7.55;100.00;100572.94;5050212;28;20208;-65
2022/11/11 06:28:40;;;;;;;0.93;0.93;;;;;;;7.43;100.00;100583.16;5048834;28;20291;-65
2022/11/11 06:31:10;;;;;;;0.60;0.60;;;;;;;7.38;100.00;100572.94;5049176;28;20236;-64
2022/11/11 06:33:37;;;;;;;0.67;0.67;;;;;;;7.46;100.00;100589.13;5050020;28;20284;-64
2022/11/11 06:36:05;;;;;;;0.60;0.60;;;;;;;7.48;100.00;100589.09;5048341;28;20254;-65
2022/11/11 06:38:33;;;;;;;0.60;0.60;;;;;;;7.51;100.00;100591.66;5047123;28;20217;-65
2022/11/11 06:41:00;;;;;;;0.90;0.90;;;;;;;7.61;100.00;100593.38;5044428;28;20254;-65
2022/11/11 06:43:26;;;;;;;4.10;1.33;;;;;;;7.75;100.00;100581.47;5046992;28;20209;-65
2022/11/11 06:45:54;;;;;;;0.60;0.60;;;;;;;7.85;100.00;100593.41;5048205;28;20246;-65
2022/11/11 06:48:24;;;;;;;0.70;0.70;;;;;;;7.98;100.00;100589.94;5049789;28;20208;-65
2022/11/11 06:50:51;;;;;;;0.70;0.70;;;;;;;8.10;100.00;100592.53;5048162;28;20240;-65
2022/11/11 06:53:19;;;;;;;0.50;0.50;;;;;;;8.27;100.00;100595.88;5047047;28;20207;-67
2022/11/11 06:55:46;;;;;;;0.80;0.80;;;;;;;8.45;100.00;100589.94;5049763;28;20618;-66
2022/11/11 06:58:16;;;;;;;5.20;2.20;;;;;;;8.75;100.00;100591.53;5048875;28;20200;-66
2022/11/11 07:00:44;;;;;;;0.43;0.43;;;;;;;9.03;100.00;100567.53;5049823;28;20209;-66
2022/11/11 07:03:13;;;;;;;0.60;0.60;;;;;;;9.29;100.00;100569.94;5049639;28;20236;-66
2022/11/11 07:05:42;;;;;;;0.57;0.57;;;;;;;9.46;100.00;100569.00;5049077;28;20204;-67
2022/11/11 07:08:11;;;;;;;0.57;0.57;;;;;;;9.72;100.00;100571.34;5049528;28;20197;-66
2022/11/11 07:10:40;;;;;;;0.60;0.60;;;;;;;10.24;100.00;100573.47;5049621;28;20246;-65
2022/11/11 07:13:08;;;;;;;0.60;0.60;;;;;;;10.76;100.00;100566.03;5049652;28;20199;-66
2022/11/11 07:15:35;;;;;;;0.40;0.40;;;;;;;11.11;100.00;100558.72;5049047;28;20228;-66
2022/11/11 07:18:02;;;;;;;0.50;0.50;;;;;;;11.64;100.00;100559.63;5048685;28;20262;-66
2022/11/11 07:20:29;;;;;;;0.60;0.60;;;;;;;11.95;100.00;100566.88;5049691;28;20197;-65
2022/11/11 07:22:57;;;;;;;0.90;0.90;;;;;;;12.36;100.00;100560.97;5048989;28;20586;-66
2022/11/11 07:25:24;;;;;;;0.43;0.43;;;;;;;12.70;100.00;100575.75;5048929;28;20208;-66
2022/11/11 07:27:50;;;;;;;1.07;1.07;;;;;;;12.94;100.00;100573.50;5048278;28;20259;-66
2022/11/11 07:30:18;;;;;;;1.00;1.00;;;;;;;13.11;100.00;100578.34;5049092;28;20246;-65
2022/11/11 07:32:46;;;;;;;0.80;0.80;;;;;;;13.31;100.00;100583.88;5048999;28;20557;-66
2022/11/11 07:35:14;;;;;;;0.90;0.90;;;;;;;13.39;100.00;100597.44;5047866;28;20573;-66
2022/11/11 07:37:41;;;;;;;0.50;0.50;;;;;;;13.50;100.00;100600.63;5048354;28;20216;-66
2022/11/11 07:40:11;;;;;;;0.80;0.80;;;;;;;13.81;100.00;100594.75;5049749;28;20550;-66
2022/11/11 07:42:39;;;;;;;1.03;1.03;;;;;;;13.86;100.00;100577.44;5048609;28;20253;-66
2022/11/11 07:45:07;;;;;;;1.10;1.10;;;;;;;13.95;100.00;100592.69;5049448;28;20696;-66
2022/11/11 07:47:34;;;;;;;0.60;0.60;;;;;;;14.15;100.00;100593.03;5050075;28;20205;-66
2022/11/11 07:50:01;;;;;;;0.70;0.70;;;;;;;14.19;100.00;100592.91;5050369;28;20217;-65
2022/11/11 07:52:28;;;;;;;0.47;0.47;;;;;;;14.21;100.00;100595.44;5049222;28;20204;-64
2022/11/11 07:54:55;;;;;;;0.87;0.87;;;;;;;14.27;100.00;100590.13;5049214;28;20581;-65
2022/11/11 07:57:24;;;;;;;0.70;0.70;;;;;;;14.21;100.00;100574.81;5049138;28;20207;-65
2022/11/11 07:59:50;;;;;;;0.53;0.53;;;;;;;14.54;100.00;100586.81;5044016;28;20201;-65
2022/11/11 08:02:17;;;;;;;0.97;0.97;;;;;;;14.67;100.00;100593.34;5050880;28;20676;-66
2022/11/11 08:04:44;;;;;;;1.03;1.03;;;;;;;14.63;100.00;100599.50;5050432;28;20213;-66
2022/11/11 08:07:11;;;;;;;0.83;0.83;;;;;;;14.77;100.00;100601.66;5051115;28;20232;-66
2022/11/11 08:09:38;;;;;;;1.40;0.77;;;;;;;14.97;100.00;100593.34;5047669;28;20200;-63
2022/11/11 08:14:51;;;;;;;0.50;0.50;;;;;;;15.20;98.98;100590.94;5050231;28;20222;-66
2022/11/11 08:17:17;;;;;;;0.70;0.70;;;;;;;15.39;97.58;100597.25;5051891;28;20692;-68
2022/11/11 08:19:44;;;;;;;1.27;1.27;;;;;;;15.46;96.28;100577.22;5050186;28;20213;-68
2022/11/11 08:22:12;;;;;;;1.97;1.87;;;;;;;15.51;95.49;100590.91;5051940;28;20212;-66
2022/11/11 08:24:39;;;;;;;0.53;0.53;;;;;;;15.50;94.99;100605.56;5052186;28;20671;-65
2022/11/11 08:27:06;;;;;;;0.57;0.57;;;;;;;15.51;95.26;100604.66;5051215;28;20205;-65
2022/11/11 08:29:34;;;;;;;0.50;0.50;;;;;;;15.53;95.14;100597.72;5050980;28;20661;-66
2022/11/11 08:32:02;;;;;;;1.90;1.90;;;;;;;15.60;94.83;100603.53;5051809;28;20557;-65
2022/11/11 08:34:29;;;;;;;1.90;1.17;;;;;;;15.60;95.26;100599.22;5051726;28;20671;-67
2022/11/11 08:36:56;;;;;;;1.50;1.50;;;;;;;15.62;94.72;100600.00;5051083;28;20216;-66
2022/11/11 08:39:22;;;;;;;0.70;0.70;;;;;;;15.62;94.31;100604.31;5051461;28;20254;-65
2022/11/11 08:41:49;;;;;;;0.53;0.53;;;;;;;15.64;94.91;100602.50;5047676;28;20193;-65
2022/11/11 08:44:16;;;;;;;0.60;0.60;;;;;;;15.65;94.68;100607.66;5052571;28;20642;-66
2022/11/11 08:46:43;;;;;;;0.50;0.50;;;;;;;15.63;94.89;100617.22;5051315;28;20207;-66
2022/11/11 08:49:12;;;;;;;0.50;0.50;;;;;;;15.55;94.60;100611.41;5048516;28;20211;-67
2022/11/11 08:51:38;;;;;;;0.50;0.50;;;;;;;15.77;94.16;100622.78;5046797;28;20213;-67
2022/11/11 08:54:05;;;;;;;0.93;0.93;;;;;;;15.83;93.14;100626.06;5047860;28;20608;-67
2022/11/11 08:56:32;;;;;;;1.17;1.17;;;;;;;15.77;93.31;100627.94;5049384;28;20212;-67
2022/11/11 08:58:59;;;;;;;0.80;0.80;;;;;;;15.73;93.15;100628.91;5051406;28;20630;-67
2022/11/11 09:01:25;;;;;;;0.90;0.90;;;;;;;15.73;93.10;100631.50;5051673;28;20203;-67
2022/11/11 09:03:52;;;;;;;0.53;0.53;;;;;;;15.76;93.21;100628.00;5052218;28;20205;-67
2022/11/11 09:06:22;;;;;;;0.50;0.50;;;;;;;15.67;93.39;100639.47;5051398;28;20197;-67
2022/11/11 09:08:48;;;;;;;0.50;0.50;;;;;;;15.69;93.67;100627.34;5052155;28;20681;-67
2022/11/11 09:11:15;;;;;;;0.67;0.67;;;;;;;15.73;93.46;100630.69;5048849;28;20274;-67
2022/11/11 09:13:42;;;;;;;0.77;0.77;;;;;;;15.75;93.43;100632.31;5048729;28;20649;-67
2022/11/11 09:16:09;;;;;;;0.70;0.70;;;;;;;15.81;92.95;100635.59;5046951;28;20245;-66
2022/11/11 09:18:36;;;;;;;1.90;1.20;;;;;;;15.81;92.99;100640.78;5047755;28;20202;-65
2022/11/11 09:21:03;;;;;;;1.43;1.43;;;;;;;15.85;92.48;100632.03;5047519;28;20209;-66
2022/11/11 09:23:31;;;;;;;0.90;0.90;;;;;;;15.83;92.68;100631.25;5049516;28;20204;-67
2022/11/11 09:26:02;;;;;;;0.93;0.93;;;;;;;15.83;92.21;100620.91;5050638;28;20209;-66
2022/11/11 09:28:30;;;;;;;0.40;0.40;;;;;;;15.81;93.00;100631.28;5051576;28;20659;-66
2022/11/11 09:30:59;;;;;;;0.50;0.50;;;;;;;15.84;92.49;100632.91;5051190;28;20694;-66
2022/11/11 09:33:26;;;;;;;0.50;0.50;;;;;;;15.81;92.25;100631.28;5051063;28;20707;-67
2022/11/11 09:35:53;;;;;;;0.40;0.40;;;;;;;15.81;92.29;100626.09;5047304;28;20212;-66
2022/11/11 09:38:19;;;;;;;0.50;0.50;;;;;;;15.80;91.79;100623.59;5049023;28;20205;-66
2022/11/11 09:41:01;;;;;;;0.50;0.50;;;;;;;15.83;91.69;100628.66;5049888;28;20208;-66
2022/11/11 09:43:37;;;;;;;0.40;0.40;;;;;;;15.85;91.62;100621.69;5048667;28;20204;-67
2022/11/11 09:46:17;;;;;;;0.50;0.50;;;;;;;15.82;92.01;100627.81;5045343;28;20204;-67
2022/11/11 09:48:58;;;;;;;0.50;0.50;;;;;;;15.76;92.16;100622.84;5048383;28;20204;-67
2022/11/11 09:51:30;;;;;;;0.50;0.50;;;;;;;15.86;91.98;100626.81;5048516;28;20228;-67
2022/11/11 09:54:02;;;;;;;0.40;0.40;;;;;;;15.77;92.25;100625.34;5051049;28;20213;-66
2022/11/11 09:56:33;;;;;;;0.40;0.40;;;;;;;15.77;92.59;100623.69;5054300;28;20714;-68
2022/11/11 09:59:07;;;;;;;0.50;0.50;;;;;;;15.77;92.91;100623.69;5050391;28;20236;-67
2022/11/11 10:01:39;;;;;;;0.57;0.57;;;;;;;15.79;92.28;100619.31;5050373;28;20246;-68
2022/11/11 10:04:17;;;;;;;1.50;1.40;;;;;;;15.73;92.69;100628.91;5048877;28;20213;-67
2022/11/11 10:06:47;;;;;;;0.60;0.60;;;;;;;15.77;92.24;100627.94;5050202;28;20206;-68
2022/11/11 10:09:22;;;;;;;5.30;1.07;;;;;;;15.73;92.84;100621.16;5049076;28;20200;-68
2022/11/11 10:11:59;;;;;;;0.60;0.60;;;;;;;15.70;92.89;100618.69;5049381;28;20218;-68
2022/11/11 10:14:31;;;;;;;0.90;0.90;;;;;;;15.66;92.42;100627.44;5050265;28;20237;-68
2022/11/11 10:17:09;;;;;;;1.07;1.07;;;;;;;15.68;92.52;100624.81;5049971;28;20234;-68
2022/11/11 10:19:51;;;;;;;2.37;2.23;;;;;;;15.58;92.46;100616.50;5050110;28;20206;-67
2022/11/11 10:22:23;;;;;;;0.60;0.60;;;;;;;15.64;92.57;100629.22;5047590;28;20194;-68
2022/11/11 10:25:01;;;;;;;1.27;1.27;;;;;;;15.56;92.57;100620.88;5049510;28;20235;-68
2022/11/11 10:27:33;;;;;;;0.83;0.83;;;;;;;15.61;93.52;100626.72;5052358;28;20208;-68
2022/11/11 10:30:01;;;;;;;1.20;1.20;;;;;;;15.66;92.82;100626.59;5053823;28;20723;-68
2022/11/11 10:32:33;;;;;;;0.60;0.60;;;;;;;15.62;93.16;100625.84;5050626;28;20204;-68
2022/11/11 10:35:14;;;;;;;0.60;0.60;;;;;;;15.64;93.07;100630.94;5053920;28;20201;-68
2022/11/11 10:37:43;;;;;;;0.50;0.50;;;;;;;15.65;92.79;100622.31;5053029;28;20700;-68
2022/11/11 10:40:18;;;;;;;0.60;0.60;;;;;;;15.66;93.68;100614.53;5049776;28;20199;-68
2022/11/11 10:42:46;;;;;;;0.40;0.40;;;;;;;15.72;94.21;100619.50;5047841;28;20294;-68
2022/11/11 10:45:23;;;;;;;0.50;0.50;;;;;;;15.71;94.89;100622.97;5048992;28;20204;-68
2022/11/11 10:47:56;;;;;;;0.40;0.40;;;;;;;15.68;95.67;100617.91;5047541;28;20652;-68
2022/11/11 10:50:30;;;;;;;0.50;0.50;;;;;;;15.70;95.58;100618.69;5046864;28;20212;-68
2022/11/11 10:53:03;;;;;;;0.50;0.50;;;;;;;15.73;95.83;100621.16;5048160;28;22279;-69
2022/11/11 10:55:39;;;;;;;0.50;0.50;;;;;;;15.68;95.41;100614.47;5048548;28;20270;-68
2022/11/11 10:58:13;;;;;;;0.90;0.90;;;;;;;15.67;95.20;100608.44;5049410;28;20220;-68
2022/11/11 11:00:41;;;;;;;0.50;0.50;;;;;;;15.58;93.99;100618.22;5048452;28;20209;-68
2022/11/11 11:03:16;;;;;;;0.60;0.60;;;;;;;15.56;94.15;100617.44;5049183;28;20205;-68
2022/11/11 11:05:48;;;;;;;0.50;0.50;;;;;;;15.61;94.41;100615.53;5048457;28;20259;-68
2022/11/11 11:08:20;;;;;;;0.50;0.50;;;;;;;15.55;92.97;100616.59;5049281;28;20205;-68
2022/11/11 11:10:52;;;;;;;0.57;0.57;;;;;;;15.55;92.48;100611.41;5049448;28;20750;-66
2022/11/11 11:13:27;;;;;;;0.40;0.40;;;;;;;15.55;92.44;100613.16;5050077;28;20668;-66
2022/11/11 11:15:57;;;;;;;0.60;0.60;;;;;;;15.51;92.10;100607.22;5046610;28;20226;-65
2022/11/11 11:18:26;;;;;;;0.50;0.50;;;;;;;15.50;91.70;100605.56;5049148;28;20587;-65
2022/11/11 11:20:57;;;;;;;0.50;0.50;;;;;;;15.50;91.88;100605.56;5049827;28;20206;-65
2022/11/11 11:23:38;;;;;;;0.60;0.60;;;;;;;15.48;92.24;100606.47;5048138;28;20223;-65
2022/11/11 11:26:05;;;;;;;0.40;0.40;;;;;;;15.49;92.30;100601.28;5050156;28;20208;-65
2022/11/11 11:28:34;;;;;;;0.60;0.60;;;;;;;15.42;92.58;100597.16;5044598;28;20676;-65
2022/11/11 11:31:03;;;;;;;0.53;0.53;;;;;;;15.41;93.03;100590.28;5044859;28;20637;-65
2022/11/11 11:33:51;;;;;;;0.50;0.50;;;;;;;15.43;92.35;100593.69;5049042;28;20256;-66
2022/11/11 11:36:19;;;;;;;0.57;0.57;;;;;;;15.49;92.23;100587.50;5048737;28;20672;-65
2022/11/11 11:38:49;;;;;;;0.90;0.90;;;;;;;15.49;92.09;100583.19;5053665;28;20587;-65
2022/11/11 11:41:16;;;;;;;0.60;0.60;;;;;;;15.50;92.36;100582.31;5050171;28;20288;-65
2022/11/11 11:43:45;;;;;;;0.50;0.50;;;;;;;15.53;92.98;100589.94;5052142;28;20592;-65
2022/11/11 11:46:27;;;;;;;1.90;0.60;;;;;;;15.51;96.04;100583.16;5048912;28;20212;-65
2022/11/11 11:49:09;;;;;;;3.40;0.93;;;;;;;15.52;97.63;100587.41;5048371;28;20210;-65
2022/11/11 11:51:42;;;;;;;0.73;0.73;;;;;;;15.56;97.84;100584.69;5051130;28;20224;-65
2022/11/11 11:54:31;;;;;;;0.60;0.60;;;;;;;15.61;98.87;100577.63;5051407;28;20223;-65
2022/11/11 11:57:02;;;;;;;0.70;0.70;;;;;;;15.57;98.23;100581.19;5052422;28;20204;-65
2022/11/11 11:59:37;;;;;;;0.40;0.40;;;;;;;15.64;100.00;100574.94;5050353;28;20215;-65
2022/11/11 12:02:21;;;;;;;0.60;0.60;;;;;;;15.72;100.00;100575.53;5053445;28;20196;-64
2022/11/11 12:05:06;;;;;;;1.00;1.00;;;;;;;15.72;100.00;100578.13;5052547;28;20204;-65
2022/11/11 12:07:50;;;;;;;1.23;1.23;;;;;;;15.77;100.00;100577.16;5051625;28;20201;-65
2022/11/11 12:10:29;;;;;;;0.50;0.50;;;;;;;15.64;100.00;100577.53;5051628;28;20208;-65
2022/11/11 12:13:02;;;;;;;1.23;1.23;;;;;;;15.76;100.00;100584.06;5052827;28;20192;-65
2022/11/11 12:15:37;;;;;;;0.60;0.60;;;;;;;15.81;100.00;100581.28;5052675;28;20566;-65
2022/11/11 12:18:37;;;;;;;0.60;0.60;;;;;;;15.75;100.00;100575.44;5048121;28;20212;-64
2022/11/11 12:21:10;;;;;;;0.60;0.60;;;;;;;15.66;100.00;100565.41;5034150;28;20198;-65
2022/11/11 12:23:53;;;;;;;1.07;1.07;;;;;;;15.67;100.00;100577.41;5052684;28;20387;-65
2022/11/11 12:26:25;;;;;;;0.60;0.60;;;;;;;15.71;100.00;100573.84;5053371;28;20192;-65
2022/11/11 12:29:07;;;;;;;0.40;0.40;;;;;;;15.68;100.00;100566.19;5052997;28;20201;-65
2022/11/11 12:31:49;;;;;;;0.53;0.53;;;;;;;15.68;100.00;100579.13;5052745;28;20221;-65
2022/11/11 12:34:36;;;;;;;0.70;0.70;;;;;;;15.60;100.00;100580.25;5053089;28;20197;-65
2022/11/11 12:37:13;;;;;;;0.83;0.83;;;;;;;15.59;100.00;100582.00;5053109;28;20260;-65
2022/11/11 12:40:00;;;;;;;0.50;0.50;;;;;;;15.53;100.00;100574.44;5052189;28;20672;-65
2022/11/11 12:42:40;;;;;;;1.27;1.27;;;;;;;15.42;100.00;100575.63;5049440;28;20214;-64
2022/11/11 12:45:17;;;;;;;1.70;0.87;;;;;;;15.38;100.00;100580.03;5052153;28;20218;-65
2022/11/11 12:47:56;;;;;;;0.60;0.60;;;;;;;15.45;100.00;100586.72;5052891;28;20213;-65
2022/11/11 12:50:27;;;;;;;0.43;0.43;;;;;;;15.36;100.00;100565.47;5053092;28;20201;-64
2022/11/11 12:53:06;;;;;;;0.60;0.60;;;;;;;15.59;100.00;100575.97;5052619;28;20224;-65
2022/11/11 12:55:40;;;;;;;0.50;0.50;;;;;;;15.64;100.00;100582.69;5050847;28;20213;-65